Time;durP1;ratioP1;P1;durP2;ratioP2;P2;SDS_P1;SDS_P2;PMS_P1;PMS_P2;Temp;Humidity;BMP_temperature;BMP_pressure;BME280_temperature;BME280_humidity;BME280_pressure;Samples;Min_cycle;Max_cycle;Signal;HPM_P1;HPM_P2
2022/04/30 00:00:42;;;;;;;;;;;;;;;13.45;40.66;102270.19;5018917;28;19932;-58
2022/04/30 00:03:08;;;;;;;;;;;;;;;13.43;40.70;102274.69;5019053;28;19932;-59
2022/04/30 00:05:34;;;;;;;;;;;;;;;13.38;40.60;102261.66;5017168;28;19925;-62
2022/04/30 00:08:01;;;;;;;;;;;;;;;13.31;40.88;102254.94;4997639;28;19925;-60
2022/04/30 00:10:26;;;;;;;;;;;;;;;13.25;41.15;102264.88;5019334;28;19921;-60
2022/04/30 00:12:52;;;;;;;;;;;;;;;13.25;41.00;102262.22;5024493;28;19963;-60
2022/04/30 00:15:17;;;;;;;;;;;;;;;13.27;41.17;102256.84;5021124;28;20307;-60
2022/04/30 00:17:43;;;;;;;;;;;;;;;13.27;41.18;102262.13;5013502;28;20473;-60
2022/04/30 00:20:08;;;;;;;;;;;;;;;13.25;41.16;102259.56;5027236;28;19916;-61
2022/04/30 00:22:34;;;;;;;;;;;;;;;13.26;41.07;102257.78;5028486;28;19917;-61
2022/04/30 00:24:59;;;;;;;;;;;;;;;13.25;41.11;102259.56;5021723;28;20000;-61
2022/04/30 00:27:25;;;;;;;;;;;;;;;13.21;41.20;102254.50;5028365;28;19917;-61
2022/04/30 00:29:50;;;;;;;;;;;;;;;13.20;41.17;102256.28;5016008;28;20967;-61
2022/04/30 00:32:16;;;;;;;;;;;;;;;13.22;41.24;102258.88;5016990;28;19921;-60
2022/04/30 00:34:41;;;;;;;;;;;;;;;13.20;41.34;102258.91;5017886;28;19931;-61
2022/04/30 00:37:07;;;;;;;;;;;;;;;13.18;41.21;102254.63;5027112;28;19917;-61
2022/04/30 00:39:32;;;;;;;;;;;;;;;13.16;41.30;102256.47;5024234;28;20592;-60
2022/04/30 00:41:58;;;;;;;;;;;;;;;13.16;41.40;102253.84;5021508;28;19920;-60
2022/04/30 00:44:24;;;;;;;;;;;;;;;13.16;41.47;102256.47;5015177;28;19916;-61
2022/04/30 00:46:50;;;;;;;;;;;;;;;13.16;41.42;102259.13;5019391;28;20432;-61
2022/04/30 00:49:15;;;;;;;;;;;;;;;13.14;41.46;102253.91;5018630;28;19924;-60
2022/04/30 00:51:41;;;;;;;;;;;;;;;13.10;41.52;102255.81;5018240;28;19940;-61
2022/04/30 00:54:08;;;;;;;;;;;;;;;13.06;41.66;102256.91;5020649;28;20277;-61
2022/04/30 00:56:36;;;;;;;;;;;;;;;13.02;41.72;102251.78;5019768;28;19959;-59
2022/04/30 00:59:02;;;;;;;;;;;;;;;13.00;41.65;102253.69;5017921;28;20404;-57
2022/04/30 01:01:31;;;;;;;;;;;;;;;12.99;41.72;102251.97;5015243;28;19928;-61
2022/04/30 01:03:56;;;;;;;;;;;;;;;12.95;41.84;102246.81;5016543;28;22963;-59
2022/04/30 01:06:40;;;;;;;;;;;;;;;12.92;41.90;102243.44;5020231;28;20369;-58
2022/04/30 01:09:05;;;;;;;;;;;;;;;12.91;41.98;102244.38;5015839;28;19912;-61
2022/04/30 01:11:31;;;;;;;;;;;;;;;12.93;41.87;102237.22;5019289;28;19983;-61
2022/04/30 01:13:58;;;;;;;;;;;;;;;12.94;41.86;102245.06;5020553;28;20360;-60
2022/04/30 01:16:25;;;;;;;;;;;;;;;12.98;42.00;102243.16;5019367;28;19932;-61
2022/04/30 01:18:50;;;;;;;;;;;;;;;12.96;41.97;102243.22;5017951;28;19964;-59
2022/04/30 01:21:18;;;;;;;;;;;;;;;12.98;42.00;102245.78;5004402;28;19956;-58
2022/04/30 01:23:44;;;;;;;;;;;;;;;13.01;41.78;102244.81;5014209;28;19924;-57
2022/04/30 01:26:10;;;;;;;;;;;;;;;12.99;41.85;102239.59;5019710;28;19917;-60
2022/04/30 01:28:36;;;;;;;;;;;;;;;12.98;41.98;102235.22;5017867;28;19932;-59
2022/04/30 01:31:01;;;;;;;;;;;;;;;12.98;41.98;102244.94;5017752;28;22876;-58
2022/04/30 01:38:58;;;;;;;;;;;;;;;12.95;42.20;102235.34;5017594;28;19928;-60
2022/04/30 01:41:24;;;;;;;;;;;;;;;12.94;42.14;102233.63;5019091;28;19921;-60
2022/04/30 01:43:50;;;;;;;;;;;;;;;12.95;42.08;102236.22;5018379;28;20037;-60
2022/04/30 01:46:15;;;;;;;;;;;;;;;12.89;42.24;102231.19;5016523;28;19921;-60
2022/04/30 01:48:41;;;;;;;;;;;;;;;12.83;42.34;102230.63;5018383;28;19932;-58
2022/04/30 01:51:06;;;;;;;;;;;;;;;12.80;42.32;102232.47;5018912;28;19932;-59
2022/04/30 01:53:32;;;;;;;;;;;;;;;12.80;42.45;102228.97;5016669;28;19966;-62
2022/04/30 01:55:58;;;;;;;;;;;;;;;12.83;42.46;102230.63;5016913;28;20285;-58
2022/04/30 01:58:23;;;;;;;;;;;;;;;12.80;42.58;102232.47;5024935;28;19917;-60
2022/04/30 02:00:49;;;;;;;;;;;;;;;12.76;42.61;102225.63;5025429;28;20321;-61
2022/04/30 02:03:14;;;;;;;;;;;;;;;12.75;42.45;102221.25;5026214;28;20665;-61
2022/04/30 02:05:40;;;;;;;;;;;;;;;12.75;42.50;102223.91;5027972;28;20459;-60
2022/04/30 02:08:10;;;;;;;;;;;;;;;12.79;42.49;102221.97;5021669;28;19967;-60
2022/04/30 02:10:36;;;;;;;;;;;;;;;12.78;42.52;102218.44;5020443;28;19923;-61
2022/04/30 02:13:02;;;;;;;;;;;;;;;12.77;42.57;102219.41;5024165;28;19917;-60
2022/04/30 02:15:29;;;;;;;;;;;;;;;12.78;42.56;102213.16;5023802;28;19920;-60
2022/04/30 02:17:56;;;;;;;;;;;;;;;12.79;42.42;102208.75;5017636;28;19925;-61
2022/04/30 02:20:23;;;;;;;;;;;;;;;12.80;42.58;102206.03;5024600;28;19988;-60
2022/04/30 02:22:49;;;;;;;;;;;;;;;12.80;42.64;102206.03;5022179;28;19999;-61
2022/04/30 02:25:15;;;;;;;;;;;;;;;12.80;42.42;102206.03;5019999;28;19959;-60
2022/04/30 02:27:43;;;;;;;;;;;;;;;12.78;42.71;102207.88;5020422;28;19912;-60
2022/04/30 02:30:10;;;;;;;;;;;;;;;12.71;42.56;102210.88;5021030;28;19959;-60
2022/04/30 02:32:40;;;;;;;;;;;;;;;12.57;42.91;102203.56;5027769;28;19915;-59
2022/04/30 02:35:06;;;;;;;;;;;;;;;12.47;43.03;102209.25;5022041;28;20363;-60
2022/04/30 02:37:31;;;;;;;;;;;;;;;12.44;43.11;102209.38;5024424;28;19964;-59
2022/04/30 02:39:57;;;;;;;;;;;;;;;12.45;43.10;102210.22;5022890;28;19921;-61
2022/04/30 02:42:22;;;;;;;;;;;;;;;12.47;43.04;102206.59;5022933;28;19917;-59
2022/04/30 02:44:48;;;;;;;;;;;;;;;12.48;43.11;102200.38;5022906;28;19988;-61
2022/04/30 02:47:13;;;;;;;;;;;;;;;12.48;42.91;102205.66;5023384;28;20324;-60
2022/04/30 02:49:38;;;;;;;;;;;;;;;12.48;43.08;102192.44;5023322;28;19976;-60
2022/04/30 02:52:04;;;;;;;;;;;;;;;12.46;43.05;102190.81;5021825;28;19925;-58
2022/04/30 02:54:30;;;;;;;;;;;;;;;12.44;43.16;102188.25;5023448;28;19971;-60
2022/04/30 02:56:56;;;;;;;;;;;;;;;12.42;43.04;102190.09;5026835;28;19917;-61
2022/04/30 03:02:05;;;;;;;;;;;;;;;12.41;42.95;102195.41;5030523;28;19928;-60
2022/04/30 03:04:30;;;;;;;;;;;;;;;12.39;43.07;102192.84;5025226;28;19941;-60
2022/04/30 03:06:56;;;;;;;;;;;;;;;12.38;42.98;102196.41;5026437;28;19917;-57
2022/04/30 03:09:21;;;;;;;;;;;;;;;12.33;43.04;102196.59;5027579;28;19963;-56
2022/04/30 03:11:47;;;;;;;;;;;;;;;12.22;43.18;102187.41;5032059;28;19921;-56
2022/04/30 03:14:13;;;;;;;;;;;;;;;12.14;43.19;102185.09;5026512;28;19987;-57
2022/04/30 03:22:06;;;;;;;;;;;;;;;11.96;43.45;102182.25;5028802;28;19939;-58
2022/04/30 03:24:32;;;;;;;;;;;;;;;11.96;43.31;102169.06;5029526;28;21777;-56
2022/04/30 03:26:57;;;;;;;;;;;;;;;11.99;43.29;102170.78;5030503;28;19913;-56
2022/04/30 03:29:23;;;;;;;;;;;;;;;12.00;43.17;102167.22;5028255;28;19952;-58
2022/04/30 03:31:49;;;;;;;;;;;;;;;11.98;43.09;102174.28;5029049;28;19925;-60
2022/04/30 03:34:15;;;;;;;;;;;;;;;11.97;43.21;102169.94;5024774;28;19917;-59
2022/04/30 03:36:41;;;;;;;;;;;;;;;11.97;43.14;102172.56;5021497;28;19924;-57
2022/04/30 03:39:06;;;;;;;;;;;;;;;11.99;43.16;102166.34;5020947;28;19933;-57
2022/04/30 03:41:31;;;;;;;;;;;;;;;12.03;43.15;102172.34;5026374;28;19956;-59
2022/04/30 03:43:57;;;;;;;;;;;;;;;12.07;42.91;102173.09;5023963;28;20300;-59
2022/04/30 03:46:22;;;;;;;;;;;;;;;12.08;43.05;102164.25;5025211;28;20274;-57
2022/04/30 03:48:53;;;;;;;;;;;;;;;12.08;42.90;102164.25;5024348;28;20387;-58
2022/04/30 03:51:18;;;;;;;;;;;;;;;12.05;43.05;102170.50;5026068;28;20017;-56
2022/04/30 03:53:44;;;;;;;;;;;;;;;12.04;42.96;102160.88;5025014;28;20066;-57
2022/04/30 03:56:09;;;;;;;;;;;;;;;12.00;43.01;102167.22;5028988;28;20014;-56
2022/04/30 03:58:34;;;;;;;;;;;;;;;12.00;43.17;102159.28;5020404;28;19994;-57
2022/04/30 04:01:00;;;;;;;;;;;;;;;12.01;43.01;102163.66;5025521;28;19920;-62
2022/04/30 04:03:25;;;;;;;;;;;;;;;12.03;43.10;102156.50;5022177;28;19917;-57
2022/04/30 04:05:50;;;;;;;;;;;;;;;12.05;43.02;102165.22;5025109;28;19970;-56
2022/04/30 04:08:16;;;;;;;;;;;;;;;12.04;42.94;102155.59;5026759;28;20016;-58
2022/04/30 04:10:42;;;;;;;;;;;;;;;12.02;42.99;102155.66;5024130;28;19913;-58
2022/04/30 04:18:35;;;;;;;;;;;;;;;11.95;43.17;102153.31;5019972;28;19931;-58
2022/04/30 04:21:02;;;;;;;;;;;;;;;11.97;43.06;102156.75;5026592;28;19917;-58
2022/04/30 04:23:27;;;;;;;;;;;;;;;11.94;43.27;102151.59;5027729;28;19913;-58
2022/04/30 04:25:59;;;;;;;;;;;;;;;11.92;43.23;102154.31;5030531;28;19979;-58
2022/04/30 04:28:24;;;;;;;;;;;;;;;11.90;43.18;102141.16;5029512;28;19956;-58
2022/04/30 04:30:49;;;;;;;;;;;;;;;11.90;43.29;102145.59;5028769;28;21236;-60
2022/04/30 04:33:15;;;;;;;;;;;;;;;11.90;43.23;102149.06;5023255;28;19921;-58
2022/04/30 04:35:40;;;;;;;;;;;;;;;11.92;43.40;102153.44;5008888;28;19917;-55
2022/04/30 04:38:05;;;;;;;;;;;;;;;11.93;43.34;102153.38;5022999;28;19924;-58
2022/04/30 04:40:31;;;;;;;;;;;;;;;11.93;43.31;102149.88;5025687;28;20483;-58
2022/04/30 04:42:56;;;;;;;;;;;;;;;11.95;43.31;102153.31;5026229;28;19932;-58
2022/04/30 04:45:23;;;;;;;;;;;;;;;11.96;43.28;102155.03;5023287;28;19991;-57
2022/04/30 04:47:49;;;;;;;;;;;;;;;11.98;43.50;102155.81;5028557;28;19999;-57
2022/04/30 04:50:15;;;;;;;;;;;;;;;12.00;43.28;102156.66;5024537;28;20392;-58
2022/04/30 04:52:41;;;;;;;;;;;;;;;12.01;43.44;102161.03;5024868;28;19917;-58
2022/04/30 04:55:06;;;;;;;;;;;;;;;12.00;43.34;102165.41;5027448;28;19921;-58
2022/04/30 04:57:32;;;;;;;;;;;;;;;12.00;43.56;102161.94;5022840;28;20273;-56
2022/04/30 04:59:57;;;;;;;;;;;;;;;12.02;43.43;102165.38;5023399;28;20380;-58
2022/04/30 05:02:22;;;;;;;;;;;;;;;12.04;43.62;102163.50;5025652;28;19917;-59
2022/04/30 05:04:48;;;;;;;;;;;;;;;12.07;43.44;102162.53;5019539;28;20331;-57
2022/04/30 05:07:14;;;;;;;;;;;;;;;12.06;43.61;102164.31;5024991;28;19913;-58
2022/04/30 05:09:39;;;;;;;;;;;;;;;12.08;43.45;102167.75;5026716;28;19956;-60
2022/04/30 05:12:04;;;;;;;;;;;;;;;12.10;43.51;102162.41;5025929;28;19917;-54
2022/04/30 05:14:33;;;;;;;;;;;;;;;12.13;43.60;102172.81;5028353;28;19940;-57
2022/04/30 05:17:03;;;;;;;;;;;;;;;12.16;43.42;102165.66;5024893;28;20285;-58
2022/04/30 05:19:28;;;;;;;;;;;;;;;12.19;43.35;102168.16;5026235;28;19917;-57
2022/04/30 05:21:54;;;;;;;;;;;;;;;12.23;43.41;102173.31;5025516;28;19917;-60
2022/04/30 05:24:19;;;;;;;;;;;;;;;12.24;43.46;102173.25;5021969;28;20281;-57
2022/04/30 05:26:45;;;;;;;;;;;;;;;12.25;43.30;102176.75;5024427;28;19962;-57
2022/04/30 05:29:10;;;;;;;;;;;;;;;12.27;43.36;102174.91;5025631;28;19917;-59
2022/04/30 05:31:35;;;;;;;;;;;;;;;12.31;43.49;102171.22;5022958;28;19921;-58
2022/04/30 05:34:01;;;;;;;;;;;;;;;12.34;43.52;102178.97;5022546;28;19954;-60
2022/04/30 05:36:26;;;;;;;;;;;;;;;12.34;43.47;102177.22;5023705;28;19917;-58
2022/04/30 05:38:51;;;;;;;;;;;;;;;12.35;43.27;102178.06;5024626;28;19929;-58
2022/04/30 05:41:17;;;;;;;;;;;;;;;12.37;43.40;102168.28;5028130;28;19996;-55
2022/04/30 05:43:43;;;;;;;;;;;;;;;12.39;43.48;102168.25;5029049;28;19920;-57
2022/04/30 05:46:08;;;;;;;;;;;;;;;12.39;43.36;102174.38;5018837;28;20434;-58
2022/04/30 05:48:33;;;;;;;;;;;;;;;12.41;43.48;102177.81;5021720;28;20007;-58
2022/04/30 05:51:01;;;;;;;;;;;;;;;12.44;43.29;102177.69;5019420;28;19917;-59
2022/04/30 05:53:26;;;;;;;;;;;;;;;12.45;43.51;102174.13;5022603;28;19925;-57
2022/04/30 05:55:52;;;;;;;;;;;;;;;12.49;43.35;102178.31;5022853;28;20418;-56
2022/04/30 05:58:18;;;;;;;;;;;;;;;12.53;43.21;102176.44;5027762;28;19921;-57
2022/04/30 06:00:43;;;;;;;;;;;;;;;12.58;43.11;102174.44;5023349;28;19959;-58
2022/04/30 06:03:09;;;;;;;;;;;;;;;12.63;42.74;102182.16;5024743;28;19952;-57
2022/04/30 06:05:34;;;;;;;;;;;;;;;12.68;42.89;102190.75;5021691;28;19921;-55
2022/04/30 06:07:59;;;;;;;;;;;;;;;12.72;42.80;102188.81;5021794;28;19960;-58
2022/04/30 06:10:25;;;;;;;;;;;;;;;12.74;42.70;102190.47;5020958;28;19945;-61
2022/04/30 06:12:50;;;;;;;;;;;;;;;12.77;42.76;102197.41;5016931;28;19928;-57
2022/04/30 06:15:15;;;;;;;;;;;;;;;12.82;42.62;102192.78;5020205;28;21743;-57
2022/04/30 06:17:41;;;;;;;;;;;;;;;12.86;42.50;102182.94;5024494;28;19941;-58
2022/04/30 06:20:06;;;;;;;;;;;;;;;12.90;42.55;102184.53;5020797;28;19921;-58
2022/04/30 06:22:34;;;;;;;;;;;;;;;12.95;42.36;102179.88;5023657;28;19928;-56
2022/04/30 06:24:59;;;;;;;;;;;;;;;13.01;42.44;102190.19;5021989;28;20373;-58
2022/04/30 06:27:24;;;;;;;;;;;;;;;13.05;42.28;102189.13;5022685;28;19925;-58
2022/04/30 06:29:51;;;;;;;;;;;;;;;13.09;42.18;102188.03;5022975;28;19917;-60
2022/04/30 06:32:16;;;;;;;;;;;;;;;13.14;42.23;102187.84;5016986;28;19917;-59
2022/04/30 06:34:41;;;;;;;;;;;;;;;13.17;41.98;102186.84;5024372;28;20331;-57
2022/04/30 06:37:07;;;;;;;;;;;;;;;13.19;42.06;102185.00;5016348;28;19924;-58
2022/04/30 06:39:32;;;;;;;;;;;;;;;13.22;42.07;102190.13;5018329;28;19925;-58
2022/04/30 06:41:57;;;;;;;;;;;;;;;13.25;42.10;102190.84;5018249;28;19917;-56
2022/04/30 06:44:22;;;;;;;;;;;;;;;13.30;41.85;102192.44;5024408;28;19917;-58
2022/04/30 06:46:48;;;;;;;;;;;;;;;13.33;42.00;102198.44;5020024;28;19921;-54
2022/04/30 06:49:13;;;;;;;;;;;;;;;13.38;41.69;102207.00;5020417;28;20446;-55
2022/04/30 06:51:38;;;;;;;;;;;;;;;13.41;41.77;102208.69;5014323;28;19933;-55
2022/04/30 06:59:37;;;;;;;;;;;;;;;13.49;41.61;102198.59;5025363;28;20031;-56
2022/04/30 07:02:05;;;;;;;;;;;;;;;13.52;41.47;102203.75;5013297;28;19921;-54
2022/04/30 07:04:32;;;;;;;;;;;;;;;13.54;41.59;102201.00;5017003;28;19913;-58
2022/04/30 07:06:57;;;;;;;;;;;;;;;13.56;41.44;102199.16;5021092;28;19917;-57
2022/04/30 07:09:23;;;;;;;;;;;;;;;13.56;41.59;102197.38;5021899;28;19924;-58
2022/04/30 07:11:48;;;;;;;;;;;;;;;13.60;41.52;102194.59;5019181;28;19916;-59
2022/04/30 07:14:14;;;;;;;;;;;;;;;13.62;41.50;102198.88;5020259;28;19917;-55
2022/04/30 07:16:39;;;;;;;;;;;;;;;13.67;41.46;102196.00;5017120;28;19918;-55
2022/04/30 07:19:05;;;;;;;;;;;;;;;13.71;41.42;102197.59;5024694;28;19924;-48
2022/04/30 07:21:33;;;;;;;;;;;;;;;13.72;41.33;102207.25;5013773;28;19913;-48
2022/04/30 07:23:59;;;;;;;;;;;;;;;13.74;41.17;102202.75;5022799;28;20018;-50
2022/04/30 07:26:25;;;;;;;;;;;;;;;13.78;41.13;102200.78;5019274;28;20367;-52
2022/04/30 07:28:51;;;;;;;;;;;;;;;13.81;41.17;102201.50;5004914;28;19917;-51
2022/04/30 07:31:17;;;;;;;;;;;;;;;13.85;41.08;102199.56;5025520;28;19921;-50
2022/04/30 07:33:42;;;;;;;;;;;;;;;13.89;41.26;102195.84;5020726;28;20277;-52
2022/04/30 07:36:08;;;;;;;;;;;;;;;13.96;41.32;102201.69;5018745;28;20007;-56
2022/04/30 07:38:33;;;;;;;;;;;;;;;13.99;41.11;102202.38;5021738;28;19928;-49
2022/04/30 07:40:58;;;;;;;;;;;;;;;14.01;40.98;102197.03;5026146;28;19924;-50
2022/04/30 07:43:24;;;;;;;;;;;;;;;14.03;41.05;102197.81;5022161;28;19983;-51
2022/04/30 07:45:49;;;;;;;;;;;;;;;14.08;41.01;102206.38;5014315;28;19928;-52
2022/04/30 07:48:14;;;;;;;;;;;;;;;14.11;40.84;102205.38;5029911;28;19999;-49
2022/04/30 07:50:43;;;;;;;;;;;;;;;14.13;40.98;102208.81;5031326;28;20292;-50
2022/04/30 07:53:08;;;;;;;;;;;;;;;14.16;40.84;102203.34;5023175;28;19936;-48
2022/04/30 07:55:34;;;;;;;;;;;;;;;14.19;40.82;102195.25;5019499;28;19913;-53
2022/04/30 07:58:02;;;;;;;;;;;;;;;14.24;40.92;102201.19;5026064;28;20028;-55
2022/04/30 08:00:27;;;;;;;;;;;;;;;14.31;40.60;102201.72;5024716;28;19921;-56
2022/04/30 08:02:56;;;;;;;;;;;;;;;14.39;40.48;102204.00;5024350;28;19924;-54
2022/04/30 08:05:24;;;;;;;;;;;;;;;14.46;40.58;102200.09;5028294;28;19913;-56
2022/04/30 08:07:50;;;;;;;;;;;;;;;14.53;40.59;102204.16;5027672;28;19975;-54
2022/04/30 08:10:15;;;;;;;;;;;;;;;14.59;40.41;102201.19;5028297;28;19995;-56
2022/04/30 08:12:41;;;;;;;;;;;;;;;14.63;40.38;102192.13;5023391;28;20316;-52
2022/04/30 08:15:06;;;;;;;;;;;;;;;14.69;40.36;102198.09;5027941;28;19921;-54
2022/04/30 08:17:31;;;;;;;;;;;;;;;14.72;40.30;102196.13;5028670;28;19925;-56
2022/04/30 08:19:57;;;;;;;;;;;;;;;14.78;40.14;102203.78;5025056;28;20396;-53
2022/04/30 08:22:22;;;;;;;;;;;;;;;14.83;39.98;102195.56;5028340;28;19928;-54
2022/04/30 08:24:48;;;;;;;;;;;;;;;14.89;40.17;102197.91;5026346;28;19917;-56
2022/04/30 08:27:13;;;;;;;;;;;;;;;14.96;40.18;102197.56;5027434;28;20054;-55
2022/04/30 08:29:38;;;;;;;;;;;;;;;15.00;40.01;102199.97;5027125;28;19909;-54
2022/04/30 08:32:04;;;;;;;;;;;;;;;15.06;40.03;102198.78;5026955;28;19920;-52
2022/04/30 08:34:30;;;;;;;;;;;;;;;15.12;40.11;102203.75;5025934;28;19967;-56
2022/04/30 08:36:55;;;;;;;;;;;;;;;15.16;39.82;102197.38;5026890;28;19932;-54
2022/04/30 08:39:21;;;;;;;;;;;;;;;15.20;39.88;102196.25;5007884;28;20384;-55
2022/04/30 08:41:46;;;;;;;;;;;;;;;15.22;39.78;102194.38;5027724;28;21989;-54
2022/04/30 08:44:15;;;;;;;;;;;;;;;15.26;39.85;102196.84;5024224;28;19951;-52
2022/04/30 08:46:41;;;;;;;;;;;;;;;15.29;39.69;102204.66;5026837;28;20376;-53
2022/04/30 08:49:08;;;;;;;;;;;;;;;15.31;39.69;102202.78;5007334;28;19913;-55
2022/04/30 08:51:33;;;;;;;;;;;;;;;15.34;39.59;102202.63;5011904;28;19974;-55
2022/04/30 08:53:58;;;;;;;;;;;;;;;15.36;39.55;102198.06;5027404;28;19912;-53
2022/04/30 08:56:24;;;;;;;;;;;;;;;15.40;39.57;102202.25;5026159;28;20472;-54
2022/04/30 08:58:50;;;;;;;;;;;;;;;15.45;39.49;102197.56;5022293;28;19974;-56
2022/04/30 09:01:16;;;;;;;;;;;;;;;15.47;39.54;102202.78;5024920;28;19913;-55
2022/04/30 09:03:41;;;;;;;;;;;;;;;15.48;39.56;102196.53;5023567;28;19917;-54
2022/04/30 09:06:06;;;;;;;;;;;;;;;15.49;39.45;102198.25;5026656;28;19947;-57
2022/04/30 09:08:32;;;;;;;;;;;;;;;15.49;39.30;102191.16;5025060;28;19923;-55
2022/04/30 09:11:07;;;;;;;;;;;;;;;15.50;39.19;102192.84;5028416;28;19952;-54
2022/04/30 09:13:40;;;;;;;;;;;;;;;15.51;39.29;102188.41;5020615;28;19962;-53
2022/04/30 09:16:16;;;;;;;;;;;;;;;15.51;39.11;102194.56;5025531;28;19916;-56
2022/04/30 09:18:41;;;;;;;;;;;;;;;15.54;39.15;102194.38;5025381;28;19971;-55
2022/04/30 09:21:13;;;;;;;;;;;;;;;15.57;39.01;102187.22;5024352;28;19921;-54
2022/04/30 09:23:39;;;;;;;;;;;;;;;15.60;38.75;102195.84;5026577;28;19913;-54
2022/04/30 09:26:04;;;;;;;;;;;;;;;15.62;38.98;102196.63;5028638;28;19920;-53
2022/04/30 09:28:30;;;;;;;;;;;;;;;15.63;38.74;102187.72;5024758;28;19925;-54
2022/04/30 09:31:06;;;;;;;;;;;;;;;15.64;38.64;102185.94;5027890;28;19913;-54
2022/04/30 09:33:31;;;;;;;;;;;;;;;15.60;38.68;102187.03;5026848;28;19917;-52
2022/04/30 09:38:51;;;;;;;;;;;;;;;15.65;38.67;102183.19;5024891;28;19975;-52
2022/04/30 09:41:21;;;;;;;;;;;;;;;15.71;38.72;102189.94;5025867;28;19917;-52
2022/04/30 09:43:46;;;;;;;;;;;;;;;15.78;38.76;102188.66;5025732;28;19959;-56
2022/04/30 09:46:11;;;;;;;;;;;;;;;15.84;38.60;102185.63;5008552;28;19925;-55
2022/04/30 09:54:06;;;;;;;;;;;;;;;15.96;38.72;102183.25;5024583;28;19983;-52
2022/04/30 09:56:34;;;;;;;;;;;;;;;16.03;38.69;102179.31;5025514;28;19925;-52
2022/04/30 09:59:10;;;;;;;;;;;;;;;16.12;38.66;102181.41;5024386;28;19959;-54
2022/04/30 10:01:37;;;;;;;;;;;;;;;16.13;38.58;102182.28;5022631;28;19921;-51
2022/04/30 10:04:13;;;;;;;;;;;;;;;16.17;38.57;102177.66;5024672;28;19928;-54
2022/04/30 10:06:43;;;;;;;;;;;;;;;16.25;38.51;102178.91;5025140;28;20007;-55
2022/04/30 10:09:09;;;;;;;;;;;;;;;16.31;38.43;102177.69;5024759;28;19920;-55
2022/04/30 10:11:35;;;;;;;;;;;;;;;16.38;38.32;102178.16;5026392;28;19964;-50
2022/04/30 10:14:14;;;;;;;;;;;;;;;16.45;38.30;102167.09;5023208;28;19925;-51
2022/04/30 10:16:42;;;;;;;;;;;;;;;16.52;38.18;102164.06;5026012;28;19913;-55
2022/04/30 10:19:14;;;;;;;;;;;;;;;16.58;38.12;102158.38;5023670;28;19929;-53
2022/04/30 10:21:40;;;;;;;;;;;;;;;16.64;38.27;102163.31;5024344;28;19963;-55
2022/04/30 10:24:05;;;;;;;;;;;;;;;16.69;38.14;102153.28;5025823;28;19913;-48
2022/04/30 10:26:31;;;;;;;;;;;;;;;16.72;38.12;102161.03;5025668;28;19925;-51
2022/04/30 10:28:57;;;;;;;;;;;;;;;16.75;38.28;102165.34;5028051;28;19921;-53
2022/04/30 10:31:22;;;;;;;;;;;;;;;16.79;38.25;102160.66;5023030;28;19917;-52
2022/04/30 10:33:48;;;;;;;;;;;;;;;16.82;38.28;102161.31;5024783;28;19932;-49
2022/04/30 10:36:13;;;;;;;;;;;;;;;16.85;38.27;102161.16;5025260;28;20015;-54
2022/04/30 10:38:39;;;;;;;;;;;;;;;16.89;38.26;102161.81;5022939;28;19917;-53
2022/04/30 10:41:10;;;;;;;;;;;;;;;16.91;38.30;102154.59;5024392;28;19944;-51
2022/04/30 10:43:37;;;;;;;;;;;;;;;16.96;38.35;102149.88;5019161;28;20000;-54
2022/04/30 10:46:04;;;;;;;;;;;;;;;16.99;38.44;102144.38;5024410;28;19928;-55
2022/04/30 10:48:32;;;;;;;;;;;;;;;17.04;38.41;102146.75;5023210;28;20331;-56
2022/04/30 10:51:07;;;;;;;;;;;;;;;17.09;38.35;102146.44;5004578;28;20140;-55
2022/04/30 10:53:33;;;;;;;;;;;;;;;17.14;38.20;102144.34;5023127;28;19921;-52
2022/04/30 10:56:03;;;;;;;;;;;;;;;17.18;38.32;102140.53;5023814;28;19909;-53
2022/04/30 10:58:30;;;;;;;;;;;;;;;17.24;38.20;102134.84;5025929;28;19967;-52
2022/04/30 11:00:55;;;;;;;;;;;;;;;17.30;38.27;102126.47;5025582;28;19909;-52
2022/04/30 11:03:28;;;;;;;;;;;;;;;17.36;37.94;102134.03;5020956;28;19975;-48
2022/04/30 11:05:53;;;;;;;;;;;;;;;17.33;38.04;102128.91;5024011;28;19918;-52
2022/04/30 11:08:19;;;;;;;;;;;;;;;17.31;38.07;102130.84;5025425;28;19928;-50
2022/04/30 11:10:51;;;;;;;;;;;;;;;17.32;38.08;102121.03;5023727;28;19968;-55
2022/04/30 11:13:16;;;;;;;;;;;;;;;17.33;38.13;102128.06;5026080;28;20353;-55
2022/04/30 11:15:42;;;;;;;;;;;;;;;17.31;37.91;102120.19;5024706;28;20385;-56
2022/04/30 11:18:07;;;;;;;;;;;;;;;17.30;37.95;102110.50;5021968;28;19931;-52
2022/04/30 11:20:33;;;;;;;;;;;;;;;17.36;38.19;102112.75;5023580;28;19920;-55
2022/04/30 11:23:02;;;;;;;;;;;;;;;17.47;38.04;102113.88;5028514;28;19948;-54
2022/04/30 11:25:37;;;;;;;;;;;;;;;17.59;38.04;102107.75;5029572;28;19913;-51
2022/04/30 11:28:06;;;;;;;;;;;;;;;17.69;37.95;102105.34;5027625;28;20530;-52
2022/04/30 11:30:34;;;;;;;;;;;;;;;17.79;37.72;102102.88;5028746;28;19913;-51
2022/04/30 11:33:00;;;;;;;;;;;;;;;17.85;37.61;102101.66;5027209;28;20024;-51
2022/04/30 11:35:25;;;;;;;;;;;;;;;17.91;37.59;102102.09;5029011;28;20605;-53
2022/04/30 11:37:50;;;;;;;;;;;;;;;17.98;37.64;102103.41;5029501;28;19917;-55
2022/04/30 11:40:16;;;;;;;;;;;;;;;18.04;37.54;102101.28;5028450;28;19975;-57
2022/04/30 11:42:41;;;;;;;;;;;;;;;18.10;37.42;102095.53;5011391;28;19909;-56
2022/04/30 11:45:07;;;;;;;;;;;;;;;18.11;36.96;102102.56;5025746;28;20313;-52
2022/04/30 11:47:32;;;;;;;;;;;;;;;18.09;36.87;102091.16;5025412;28;19924;-57
2022/04/30 11:50:05;;;;;;;;;;;;;;;18.05;37.08;102093.19;5027046;28;19917;-52
2022/04/30 11:52:31;;;;;;;;;;;;;;;18.02;37.01;102089.88;5028569;28;19913;-52
2022/04/30 11:54:56;;;;;;;;;;;;;;;18.00;36.74;102089.13;5024428;28;19924;-55
2022/04/30 11:57:22;;;;;;;;;;;;;;;17.98;36.87;102084.75;5029694;28;19916;-56
2022/04/30 11:59:47;;;;;;;;;;;;;;;17.97;36.90;102083.03;5028448;28;20337;-54
2022/04/30 12:02:14;;;;;;;;;;;;;;;18.02;36.79;102084.56;5024822;28;19986;-53
2022/04/30 12:04:41;;;;;;;;;;;;;;;18.05;36.93;102077.19;5029132;28;19920;-52
2022/04/30 12:07:07;;;;;;;;;;;;;;;18.13;36.82;102074.88;5029056;28;19948;-55
2022/04/30 12:09:33;;;;;;;;;;;;;;;18.24;36.75;102074.09;5026235;28;19987;-53
2022/04/30 12:11:59;;;;;;;;;;;;;;;18.36;36.44;102079.56;5028082;28;19992;-55
2022/04/30 12:14:24;;;;;;;;;;;;;;;18.44;36.40;102069.22;5024804;28;19917;-53
2022/04/30 12:16:51;;;;;;;;;;;;;;;18.46;36.02;102063.75;5024485;28;20389;-53
2022/04/30 12:24:58;;;;;;;;;;;;;;;18.39;36.04;102063.34;5026824;28;19931;-58
2022/04/30 12:27:23;;;;;;;;;;;;;;;18.43;36.15;102059.50;5007995;28;19987;-55
2022/04/30 12:30:03;;;;;;;;;;;;;;;18.51;36.17;102057.16;5028209;28;20008;-52
2022/04/30 12:32:29;;;;;;;;;;;;;;;18.62;35.86;102060.88;5021411;28;19917;-53
2022/04/30 12:34:56;;;;;;;;;;;;;;;18.63;35.29;102054.59;5026859;28;19909;-51
2022/04/30 12:37:28;;;;;;;;;;;;;;;18.57;35.50;102050.56;5025545;28;19921;-53
2022/04/30 12:39:54;;;;;;;;;;;;;;;18.54;35.82;102046.25;5027579;28;20422;-53
2022/04/30 12:42:19;;;;;;;;;;;;;;;18.57;35.69;102046.06;5025902;28;19920;-56
2022/04/30 12:44:45;;;;;;;;;;;;;;;18.59;35.55;102043.31;5022881;28;20008;-51
2022/04/30 12:47:10;;;;;;;;;;;;;;;18.56;35.65;102039.03;5007903;28;20797;-52
2022/04/30 12:49:35;;;;;;;;;;;;;;;18.56;35.63;102039.03;5026463;28;20481;-52
2022/04/30 12:52:00;;;;;;;;;;;;;;;18.55;35.49;102037.31;5027124;28;19939;-56
2022/04/30 12:54:26;;;;;;;;;;;;;;;18.54;35.36;102032.09;5025969;28;19932;-53
2022/04/30 12:56:51;;;;;;;;;;;;;;;18.49;35.41;102035.09;5023866;28;19913;-51
2022/04/30 12:59:17;;;;;;;;;;;;;;;18.43;35.25;102032.88;5025870;28;20159;-54
2022/04/30 13:01:43;;;;;;;;;;;;;;;18.36;35.04;102036.94;5010310;28;19978;-51
2022/04/30 13:04:09;;;;;;;;;;;;;;;18.36;35.38;102036.94;5022300;28;19912;-50
2022/04/30 13:06:35;;;;;;;;;;;;;;;18.38;35.39;102032.31;5028430;28;19924;-53
2022/04/30 13:14:28;;;;;;;;;;;;;;;18.56;35.31;102025.69;5028423;28;20063;-58